sensor_id;sensor_type;location;lat;lon;timestamp;P1;durP1;ratioP1;P2;durP2;ratioP2
13487;SDS011;6816;48.506;9.050;2023-01-25T00:02:59;18.40;;;12.03;;
13487;SDS011;6816;48.506;9.050;2023-01-25T00:06:00;15.80;;;11.67;;
13487;SDS011;6816;48.506;9.050;2023-01-25T00:09:01;15.23;;;11.33;;
13487;SDS011;6816;48.506;9.050;2023-01-25T00:12:02;18.13;;;11.83;;
13487;SDS011;6816;48.506;9.050;2023-01-25T00:15:03;16.70;;;11.90;;
13487;SDS011;6816;48.506;9.050;2023-01-25T00:18:04;16.40;;;12.23;;
13487;SDS011;6816;48.506;9.050;2023-01-25T00:21:11;17.90;;;11.97;;
13487;SDS011;6816;48.506;9.050;2023-01-25T00:24:16;16.20;;;12.13;;
13487;SDS011;6816;48.506;9.050;2023-01-25T00:27:17;15.07;;;11.70;;
13487;SDS011;6816;48.506;9.050;2023-01-25T00:30:17;16.30;;;11.60;;
13487;SDS011;6816;48.506;9.050;2023-01-25T00:39:33;16.70;;;11.93;;
13487;SDS011;6816;48.506;9.050;2023-01-25T00:42:34;14.73;;;11.57;;
13487;SDS011;6816;48.506;9.050;2023-01-25T00:45:35;16.87;;;12.00;;
13487;SDS011;6816;48.506;9.050;2023-01-25T00:48:35;15.10;;;11.67;;
13487;SDS011;6816;48.506;9.050;2023-01-25T00:51:36;15.90;;;11.40;;
13487;SDS011;6816;48.506;9.050;2023-01-25T00:54:36;16.90;;;11.60;;
13487;SDS011;6816;48.506;9.050;2023-01-25T00:57:37;14.13;;;10.97;;
13487;SDS011;6816;48.506;9.050;2023-01-25T01:00:38;13.97;;;11.30;;
13487;SDS011;6816;48.506;9.050;2023-01-25T01:03:38;15.87;;;11.43;;
13487;SDS011;6816;48.506;9.050;2023-01-25T01:06:39;15.27;;;11.20;;
13487;SDS011;6816;48.506;9.050;2023-01-25T01:09:40;14.87;;;11.10;;
13487;SDS011;6816;48.506;9.050;2023-01-25T01:12:41;16.03;;;11.93;;
13487;SDS011;6816;48.506;9.050;2023-01-25T01:15:42;16.87;;;11.13;;
13487;SDS011;6816;48.506;9.050;2023-01-25T01:18:43;15.30;;;11.80;;
13487;SDS011;6816;48.506;9.050;2023-01-25T01:21:44;16.10;;;11.13;;
13487;SDS011;6816;48.506;9.050;2023-01-25T01:24:46;13.80;;;10.50;;
13487;SDS011;6816;48.506;9.050;2023-01-25T01:27:47;15.30;;;11.43;;
13487;SDS011;6816;48.506;9.050;2023-01-25T01:30:48;14.63;;;11.13;;
13487;SDS011;6816;48.506;9.050;2023-01-25T01:33:49;15.60;;;11.37;;
13487;SDS011;6816;48.506;9.050;2023-01-25T01:36:51;12.63;;;9.93;;
13487;SDS011;6816;48.506;9.050;2023-01-25T01:39:51;15.17;;;11.10;;
13487;SDS011;6816;48.506;9.050;2023-01-25T01:42:59;13.87;;;10.53;;
13487;SDS011;6816;48.506;9.050;2023-01-25T01:46:04;15.37;;;10.83;;
13487;SDS011;6816;48.506;9.050;2023-01-25T01:49:18;17.00;;;12.00;;
13487;SDS011;6816;48.506;9.050;2023-01-25T01:52:27;16.17;;;10.80;;
13487;SDS011;6816;48.506;9.050;2023-01-25T01:55:29;15.90;;;11.20;;
13487;SDS011;6816;48.506;9.050;2023-01-25T01:58:30;15.13;;;11.53;;
13487;SDS011;6816;48.506;9.050;2023-01-25T02:01:33;14.23;;;10.83;;
13487;SDS011;6816;48.506;9.050;2023-01-25T02:04:34;14.13;;;10.67;;
13487;SDS011;6816;48.506;9.050;2023-01-25T02:07:36;16.00;;;11.40;;
13487;SDS011;6816;48.506;9.050;2023-01-25T02:10:37;13.77;;;10.73;;
13487;SDS011;6816;48.506;9.050;2023-01-25T02:13:39;16.67;;;11.00;;
13487;SDS011;6816;48.506;9.050;2023-01-25T02:16:40;15.67;;;11.20;;
13487;SDS011;6816;48.506;9.050;2023-01-25T02:19:44;14.73;;;10.03;;
13487;SDS011;6816;48.506;9.050;2023-01-25T02:22:54;15.27;;;10.23;;
13487;SDS011;6816;48.506;9.050;2023-01-25T02:25:56;13.87;;;10.03;;
13487;SDS011;6816;48.506;9.050;2023-01-25T02:29:04;13.77;;;10.60;;
13487;SDS011;6816;48.506;9.050;2023-01-25T02:32:06;13.10;;;9.90;;
13487;SDS011;6816;48.506;9.050;2023-01-25T02:35:07;13.50;;;9.97;;
13487;SDS011;6816;48.506;9.050;2023-01-25T02:38:18;14.87;;;9.80;;
13487;SDS011;6816;48.506;9.050;2023-01-25T02:41:21;13.87;;;10.17;;
13487;SDS011;6816;48.506;9.050;2023-01-25T02:44:26;13.70;;;10.13;;
13487;SDS011;6816;48.506;9.050;2023-01-25T02:47:30;12.67;;;9.53;;
13487;SDS011;6816;48.506;9.050;2023-01-25T02:50:31;13.83;;;9.93;;
13487;SDS011;6816;48.506;9.050;2023-01-25T02:53:32;12.93;;;9.57;;
13487;SDS011;6816;48.506;9.050;2023-01-25T02:56:33;13.50;;;9.77;;
13487;SDS011;6816;48.506;9.050;2023-01-25T02:59:33;15.43;;;10.07;;
13487;SDS011;6816;48.506;9.050;2023-01-25T03:02:35;12.60;;;9.53;;
13487;SDS011;6816;48.506;9.050;2023-01-25T03:05:36;12.97;;;9.80;;
13487;SDS011;6816;48.506;9.050;2023-01-25T03:08:37;13.23;;;10.43;;
13487;SDS011;6816;48.506;9.050;2023-01-25T03:11:37;14.47;;;10.07;;
13487;SDS011;6816;48.506;9.050;2023-01-25T03:14:38;14.13;;;9.87;;
13487;SDS011;6816;48.506;9.050;2023-01-25T03:17:39;13.67;;;9.83;;
13487;SDS011;6816;48.506;9.050;2023-01-25T03:20:39;12.00;;;9.23;;
13487;SDS011;6816;48.506;9.050;2023-01-25T03:23:40;12.43;;;9.40;;
13487;SDS011;6816;48.506;9.050;2023-01-25T03:26:41;13.07;;;8.77;;
13487;SDS011;6816;48.506;9.050;2023-01-25T03:30:00;12.40;;;9.40;;
13487;SDS011;6816;48.506;9.050;2023-01-25T03:33:01;13.37;;;9.83;;
13487;SDS011;6816;48.506;9.050;2023-01-25T03:36:02;12.33;;;9.27;;
13487;SDS011;6816;48.506;9.050;2023-01-25T03:39:03;13.97;;;10.10;;
13487;SDS011;6816;48.506;9.050;2023-01-25T03:42:03;10.80;;;9.13;;
13487;SDS011;6816;48.506;9.050;2023-01-25T03:45:05;13.17;;;9.43;;
13487;SDS011;6816;48.506;9.050;2023-01-25T03:48:06;13.47;;;9.30;;
13487;SDS011;6816;48.506;9.050;2023-01-25T03:51:07;12.90;;;9.47;;
13487;SDS011;6816;48.506;9.050;2023-01-25T03:54:08;14.13;;;10.27;;
13487;SDS011;6816;48.506;9.050;2023-01-25T03:57:09;13.00;;;9.00;;
13487;SDS011;6816;48.506;9.050;2023-01-25T04:00:10;12.23;;;9.43;;
13487;SDS011;6816;48.506;9.050;2023-01-25T04:03:11;13.73;;;9.83;;
13487;SDS011;6816;48.506;9.050;2023-01-25T04:06:12;16.60;;;10.07;;
13487;SDS011;6816;48.506;9.050;2023-01-25T04:09:12;14.47;;;9.77;;
13487;SDS011;6816;48.506;9.050;2023-01-25T04:12:13;14.87;;;10.27;;
13487;SDS011;6816;48.506;9.050;2023-01-25T04:15:14;14.20;;;9.90;;
13487;SDS011;6816;48.506;9.050;2023-01-25T04:18:15;13.23;;;10.33;;
13487;SDS011;6816;48.506;9.050;2023-01-25T04:21:15;13.53;;;10.23;;
13487;SDS011;6816;48.506;9.050;2023-01-25T04:24:16;13.93;;;10.00;;
13487;SDS011;6816;48.506;9.050;2023-01-25T04:27:17;14.83;;;9.77;;
13487;SDS011;6816;48.506;9.050;2023-01-25T04:30:18;13.70;;;9.90;;
13487;SDS011;6816;48.506;9.050;2023-01-25T04:33:19;12.83;;;9.13;;
13487;SDS011;6816;48.506;9.050;2023-01-25T04:36:20;13.43;;;9.33;;
13487;SDS011;6816;48.506;9.050;2023-01-25T04:39:21;12.33;;;9.23;;
13487;SDS011;6816;48.506;9.050;2023-01-25T04:42:21;12.93;;;9.90;;
13487;SDS011;6816;48.506;9.050;2023-01-25T04:45:22;13.37;;;9.43;;
13487;SDS011;6816;48.506;9.050;2023-01-25T04:48:24;12.00;;;9.23;;
13487;SDS011;6816;48.506;9.050;2023-01-25T04:51:25;13.23;;;10.27;;
13487;SDS011;6816;48.506;9.050;2023-01-25T04:54:25;13.17;;;10.07;;
13487;SDS011;6816;48.506;9.050;2023-01-25T04:57:26;14.43;;;9.93;;
13487;SDS011;6816;48.506;9.050;2023-01-25T05:00:27;12.90;;;9.10;;
13487;SDS011;6816;48.506;9.050;2023-01-25T05:03:28;13.40;;;9.60;;
13487;SDS011;6816;48.506;9.050;2023-01-25T05:06:29;12.10;;;9.30;;
13487;SDS011;6816;48.506;9.050;2023-01-25T05:09:30;14.33;;;9.87;;
13487;SDS011;6816;48.506;9.050;2023-01-25T05:12:30;12.73;;;9.57;;
13487;SDS011;6816;48.506;9.050;2023-01-25T05:15:31;13.90;;;9.47;;
13487;SDS011;6816;48.506;9.050;2023-01-25T05:18:32;13.77;;;9.33;;
13487;SDS011;6816;48.506;9.050;2023-01-25T05:21:32;12.63;;;9.23;;
13487;SDS011;6816;48.506;9.050;2023-01-25T05:24:52;14.10;;;9.07;;
13487;SDS011;6816;48.506;9.050;2023-01-25T05:27:52;13.63;;;9.53;;
13487;SDS011;6816;48.506;9.050;2023-01-25T05:30:53;12.37;;;9.33;;
13487;SDS011;6816;48.506;9.050;2023-01-25T05:33:54;14.03;;;9.43;;
13487;SDS011;6816;48.506;9.050;2023-01-25T05:36:54;12.87;;;10.03;;
13487;SDS011;6816;48.506;9.050;2023-01-25T05:39:56;12.27;;;9.20;;
13487;SDS011;6816;48.506;9.050;2023-01-25T05:42:57;12.93;;;9.53;;
13487;SDS011;6816;48.506;9.050;2023-01-25T05:46:01;13.00;;;9.40;;
13487;SDS011;6816;48.506;9.050;2023-01-25T05:49:02;13.67;;;9.53;;
13487;SDS011;6816;48.506;9.050;2023-01-25T05:52:03;13.40;;;9.13;;
13487;SDS011;6816;48.506;9.050;2023-01-25T05:55:04;11.53;;;9.30;;
13487;SDS011;6816;48.506;9.050;2023-01-25T05:58:04;14.07;;;9.43;;
13487;SDS011;6816;48.506;9.050;2023-01-25T06:01:06;13.80;;;9.90;;
13487;SDS011;6816;48.506;9.050;2023-01-25T06:04:07;10.90;;;9.00;;
13487;SDS011;6816;48.506;9.050;2023-01-25T06:07:08;15.27;;;10.47;;
13487;SDS011;6816;48.506;9.050;2023-01-25T06:10:09;13.03;;;9.63;;
13487;SDS011;6816;48.506;9.050;2023-01-25T06:13:10;12.83;;;9.70;;
13487;SDS011;6816;48.506;9.050;2023-01-25T06:16:10;12.80;;;9.50;;
13487;SDS011;6816;48.506;9.050;2023-01-25T06:19:12;13.33;;;8.70;;
13487;SDS011;6816;48.506;9.050;2023-01-25T06:22:13;14.10;;;9.87;;
13487;SDS011;6816;48.506;9.050;2023-01-25T06:25:13;13.70;;;9.37;;
13487;SDS011;6816;48.506;9.050;2023-01-25T06:28:14;11.90;;;8.80;;
13487;SDS011;6816;48.506;9.050;2023-01-25T06:31:16;12.07;;;9.27;;
13487;SDS011;6816;48.506;9.050;2023-01-25T06:34:17;12.83;;;9.13;;
13487;SDS011;6816;48.506;9.050;2023-01-25T06:37:18;12.47;;;9.23;;
13487;SDS011;6816;48.506;9.050;2023-01-25T06:40:20;12.30;;;8.97;;
13487;SDS011;6816;48.506;9.050;2023-01-25T06:43:21;12.17;;;8.77;;
13487;SDS011;6816;48.506;9.050;2023-01-25T06:46:21;11.33;;;8.50;;
13487;SDS011;6816;48.506;9.050;2023-01-25T06:49:22;12.67;;;8.77;;
13487;SDS011;6816;48.506;9.050;2023-01-25T06:52:23;11.63;;;8.63;;
13487;SDS011;6816;48.506;9.050;2023-01-25T06:55:23;13.40;;;8.20;;
13487;SDS011;6816;48.506;9.050;2023-01-25T06:58:24;12.63;;;8.70;;
13487;SDS011;6816;48.506;9.050;2023-01-25T07:01:26;12.23;;;8.97;;
13487;SDS011;6816;48.506;9.050;2023-01-25T07:04:29;17.60;;;9.60;;
13487;SDS011;6816;48.506;9.050;2023-01-25T07:07:30;14.40;;;8.60;;
13487;SDS011;6816;48.506;9.050;2023-01-25T07:10:30;12.87;;;8.73;;
13487;SDS011;6816;48.506;9.050;2023-01-25T07:13:32;13.63;;;9.37;;
13487;SDS011;6816;48.506;9.050;2023-01-25T07:16:33;11.90;;;8.40;;
13487;SDS011;6816;48.506;9.050;2023-01-25T07:19:37;12.33;;;8.83;;
13487;SDS011;6816;48.506;9.050;2023-01-25T07:22:38;12.77;;;8.90;;
13487;SDS011;6816;48.506;9.050;2023-01-25T07:25:45;11.77;;;8.57;;
13487;SDS011;6816;48.506;9.050;2023-01-25T07:28:47;11.57;;;8.40;;
13487;SDS011;6816;48.506;9.050;2023-01-25T07:31:49;11.87;;;8.63;;
13487;SDS011;6816;48.506;9.050;2023-01-25T07:34:49;9.63;;;8.10;;
13487;SDS011;6816;48.506;9.050;2023-01-25T07:37:50;12.67;;;8.80;;
13487;SDS011;6816;48.506;9.050;2023-01-25T07:40:51;12.97;;;9.10;;
13487;SDS011;6816;48.506;9.050;2023-01-25T07:43:52;12.43;;;9.17;;
13487;SDS011;6816;48.506;9.050;2023-01-25T07:46:53;12.17;;;8.77;;
13487;SDS011;6816;48.506;9.050;2023-01-25T07:49:54;12.03;;;8.60;;
13487;SDS011;6816;48.506;9.050;2023-01-25T07:52:54;10.17;;;7.53;;
13487;SDS011;6816;48.506;9.050;2023-01-25T07:55:57;10.20;;;6.73;;
13487;SDS011;6816;48.506;9.050;2023-01-25T07:58:58;10.27;;;7.07;;
13487;SDS011;6816;48.506;9.050;2023-01-25T08:02:01;10.27;;;7.40;;
13487;SDS011;6816;48.506;9.050;2023-01-25T08:05:02;9.67;;;7.70;;
13487;SDS011;6816;48.506;9.050;2023-01-25T08:08:05;9.20;;;6.97;;
13487;SDS011;6816;48.506;9.050;2023-01-25T08:11:07;11.23;;;8.40;;
13487;SDS011;6816;48.506;9.050;2023-01-25T08:14:15;10.50;;;7.40;;
13487;SDS011;6816;48.506;9.050;2023-01-25T08:17:16;10.67;;;7.80;;
13487;SDS011;6816;48.506;9.050;2023-01-25T08:20:17;10.63;;;7.83;;
13487;SDS011;6816;48.506;9.050;2023-01-25T08:23:18;12.70;;;8.67;;
13487;SDS011;6816;48.506;9.050;2023-01-25T08:26:19;10.67;;;7.63;;
13487;SDS011;6816;48.506;9.050;2023-01-25T08:29:20;12.33;;;8.17;;
13487;SDS011;6816;48.506;9.050;2023-01-25T08:32:20;10.80;;;7.97;;
13487;SDS011;6816;48.506;9.050;2023-01-25T08:35:21;11.93;;;7.40;;
13487;SDS011;6816;48.506;9.050;2023-01-25T08:38:22;10.97;;;7.73;;
13487;SDS011;6816;48.506;9.050;2023-01-25T08:41:22;10.40;;;7.53;;
13487;SDS011;6816;48.506;9.050;2023-01-25T08:44:24;10.57;;;7.00;;
13487;SDS011;6816;48.506;9.050;2023-01-25T08:47:25;9.00;;;6.33;;
13487;SDS011;6816;48.506;9.050;2023-01-25T08:50:25;9.13;;;6.57;;
13487;SDS011;6816;48.506;9.050;2023-01-25T08:53:26;9.87;;;6.47;;
13487;SDS011;6816;48.506;9.050;2023-01-25T08:56:28;9.23;;;6.53;;
13487;SDS011;6816;48.506;9.050;2023-01-25T08:59:29;7.87;;;6.10;;
13487;SDS011;6816;48.506;9.050;2023-01-25T09:02:29;13.30;;;6.83;;
13487;SDS011;6816;48.506;9.050;2023-01-25T09:05:32;9.57;;;6.27;;
13487;SDS011;6816;48.506;9.050;2023-01-25T09:08:34;8.27;;;6.03;;
13487;SDS011;6816;48.506;9.050;2023-01-25T09:11:36;6.97;;;5.13;;
13487;SDS011;6816;48.506;9.050;2023-01-25T09:14:39;7.40;;;6.03;;
13487;SDS011;6816;48.506;9.050;2023-01-25T09:17:39;8.60;;;6.30;;
13487;SDS011;6816;48.506;9.050;2023-01-25T09:20:40;7.40;;;5.57;;
13487;SDS011;6816;48.506;9.050;2023-01-25T09:23:41;7.77;;;5.77;;
13487;SDS011;6816;48.506;9.050;2023-01-25T09:26:47;10.00;;;6.63;;
13487;SDS011;6816;48.506;9.050;2023-01-25T09:29:48;8.37;;;6.47;;
13487;SDS011;6816;48.506;9.050;2023-01-25T09:32:49;7.80;;;6.13;;
13487;SDS011;6816;48.506;9.050;2023-01-25T09:35:50;8.30;;;6.67;;
13487;SDS011;6816;48.506;9.050;2023-01-25T09:38:50;10.57;;;7.03;;
13487;SDS011;6816;48.506;9.050;2023-01-25T09:45:31;8.03;;;6.33;;
13487;SDS011;6816;48.506;9.050;2023-01-25T09:48:41;8.50;;;6.70;;
13487;SDS011;6816;48.506;9.050;2023-01-25T09:55:16;8.53;;;6.27;;
13487;SDS011;6816;48.506;9.050;2023-01-25T09:58:21;8.67;;;6.67;;
13487;SDS011;6816;48.506;9.050;2023-01-25T10:01:40;9.57;;;6.67;;
13487;SDS011;6816;48.506;9.050;2023-01-25T10:04:52;7.80;;;6.10;;
13487;SDS011;6816;48.506;9.050;2023-01-25T10:07:57;7.37;;;5.77;;
13487;SDS011;6816;48.506;9.050;2023-01-25T10:14:29;7.87;;;5.97;;
13487;SDS011;6816;48.506;9.050;2023-01-25T10:17:36;8.07;;;6.27;;
13487;SDS011;6816;48.506;9.050;2023-01-25T10:20:40;8.23;;;6.00;;
13487;SDS011;6816;48.506;9.050;2023-01-25T10:30:41;7.97;;;6.30;;
13487;SDS011;6816;48.506;9.050;2023-01-25T10:33:45;9.47;;;7.07;;
13487;SDS011;6816;48.506;9.050;2023-01-25T10:36:49;10.40;;;7.37;;
13487;SDS011;6816;48.506;9.050;2023-01-25T10:43:05;9.87;;;7.60;;
13487;SDS011;6816;48.506;9.050;2023-01-25T10:46:19;9.13;;;7.33;;
13487;SDS011;6816;48.506;9.050;2023-01-25T10:49:24;11.57;;;7.70;;
13487;SDS011;6816;48.506;9.050;2023-01-25T10:52:44;11.17;;;8.40;;
13487;SDS011;6816;48.506;9.050;2023-01-25T10:59:12;9.83;;;7.80;;
13487;SDS011;6816;48.506;9.050;2023-01-25T11:02:35;11.57;;;8.13;;
13487;SDS011;6816;48.506;9.050;2023-01-25T11:05:40;11.77;;;8.27;;
13487;SDS011;6816;48.506;9.050;2023-01-25T11:08:42;11.57;;;8.13;;
13487;SDS011;6816;48.506;9.050;2023-01-25T11:11:42;12.43;;;8.37;;
13487;SDS011;6816;48.506;9.050;2023-01-25T11:14:52;11.60;;;8.23;;
13487;SDS011;6816;48.506;9.050;2023-01-25T11:18:15;12.13;;;8.40;;
13487;SDS011;6816;48.506;9.050;2023-01-25T11:21:20;12.63;;;7.27;;
13487;SDS011;6816;48.506;9.050;2023-01-25T11:24:33;10.97;;;7.77;;
13487;SDS011;6816;48.506;9.050;2023-01-25T11:27:35;10.03;;;7.43;;
13487;SDS011;6816;48.506;9.050;2023-01-25T11:30:35;10.10;;;8.03;;
13487;SDS011;6816;48.506;9.050;2023-01-25T11:33:36;11.27;;;7.90;;
13487;SDS011;6816;48.506;9.050;2023-01-25T12:10:01;10.90;;;7.17;;
13487;SDS011;6816;48.506;9.050;2023-01-25T12:13:12;11.40;;;8.33;;
13487;SDS011;6816;48.506;9.050;2023-01-25T12:26:36;12.83;;;8.43;;
13487;SDS011;6816;48.506;9.050;2023-01-25T12:32:46;12.23;;;7.97;;
13487;SDS011;6816;48.506;9.050;2023-01-25T12:39:28;13.13;;;8.27;;
13487;SDS011;6816;48.506;9.050;2023-01-25T12:42:38;10.33;;;7.77;;
13487;SDS011;6816;48.506;9.050;2023-01-25T12:45:43;11.87;;;7.67;;
13487;SDS011;6816;48.506;9.050;2023-01-25T12:48:46;11.50;;;7.87;;
13487;SDS011;6816;48.506;9.050;2023-01-25T12:51:49;10.83;;;8.17;;
13487;SDS011;6816;48.506;9.050;2023-01-25T12:54:52;12.37;;;8.57;;
13487;SDS011;6816;48.506;9.050;2023-01-25T12:58:46;11.10;;;7.83;;
13487;SDS011;6816;48.506;9.050;2023-01-25T13:01:45;10.20;;;7.70;;
13487;SDS011;6816;48.506;9.050;2023-01-25T13:05:05;10.93;;;7.63;;
13487;SDS011;6816;48.506;9.050;2023-01-25T13:11:45;11.10;;;7.83;;
13487;SDS011;6816;48.506;9.050;2023-01-25T13:14:47;10.73;;;7.53;;
13487;SDS011;6816;48.506;9.050;2023-01-25T13:17:48;11.43;;;7.90;;
13487;SDS011;6816;48.506;9.050;2023-01-25T13:20:52;11.50;;;7.90;;
13487;SDS011;6816;48.506;9.050;2023-01-25T13:24:10;11.57;;;7.73;;
13487;SDS011;6816;48.506;9.050;2023-01-25T13:27:27;8.13;;;5.97;;
13487;SDS011;6816;48.506;9.050;2023-01-25T13:30:35;10.20;;;6.80;;
13487;SDS011;6816;48.506;9.050;2023-01-25T13:33:51;8.60;;;5.87;;
13487;SDS011;6816;48.506;9.050;2023-01-25T13:36:52;7.90;;;5.77;;
13487;SDS011;6816;48.506;9.050;2023-01-25T13:42:58;11.03;;;7.20;;
13487;SDS011;6816;48.506;9.050;2023-01-25T13:46:01;10.27;;;6.50;;
13487;SDS011;6816;48.506;9.050;2023-01-25T13:49:04;9.73;;;6.47;;
13487;SDS011;6816;48.506;9.050;2023-01-25T13:52:15;9.70;;;5.93;;
13487;SDS011;6816;48.506;9.050;2023-01-25T13:55:18;8.37;;;6.03;;
13487;SDS011;6816;48.506;9.050;2023-01-25T13:58:20;8.17;;;6.17;;
13487;SDS011;6816;48.506;9.050;2023-01-25T14:01:22;10.43;;;6.77;;
13487;SDS011;6816;48.506;9.050;2023-01-25T14:04:23;8.60;;;5.97;;
13487;SDS011;6816;48.506;9.050;2023-01-25T14:07:29;9.67;;;6.83;;
13487;SDS011;6816;48.506;9.050;2023-01-25T14:10:34;11.43;;;7.27;;
13487;SDS011;6816;48.506;9.050;2023-01-25T14:13:34;8.37;;;6.20;;
13487;SDS011;6816;48.506;9.050;2023-01-25T14:16:35;9.33;;;5.77;;
13487;SDS011;6816;48.506;9.050;2023-01-25T14:19:39;8.77;;;6.20;;
13487;SDS011;6816;48.506;9.050;2023-01-25T14:22:49;8.13;;;6.23;;
13487;SDS011;6816;48.506;9.050;2023-01-25T14:25:51;9.40;;;6.13;;
13487;SDS011;6816;48.506;9.050;2023-01-25T14:28:54;8.73;;;6.63;;
13487;SDS011;6816;48.506;9.050;2023-01-25T14:31:56;9.10;;;6.33;;
13487;SDS011;6816;48.506;9.050;2023-01-25T14:34:58;8.93;;;6.47;;
13487;SDS011;6816;48.506;9.050;2023-01-25T14:41:27;8.57;;;6.43;;
13487;SDS011;6816;48.506;9.050;2023-01-25T14:44:31;10.03;;;6.53;;
13487;SDS011;6816;48.506;9.050;2023-01-25T14:47:34;8.57;;;5.80;;
13487;SDS011;6816;48.506;9.050;2023-01-25T14:50:35;9.07;;;6.03;;
13487;SDS011;6816;48.506;9.050;2023-01-25T14:53:38;8.50;;;5.90;;
13487;SDS011;6816;48.506;9.050;2023-01-25T14:56:43;8.80;;;6.20;;
13487;SDS011;6816;48.506;9.050;2023-01-25T14:59:44;8.20;;;5.73;;
13487;SDS011;6816;48.506;9.050;2023-01-25T15:02:53;8.93;;;5.90;;
13487;SDS011;6816;48.506;9.050;2023-01-25T15:05:56;8.83;;;5.97;;
13487;SDS011;6816;48.506;9.050;2023-01-25T15:09:02;8.27;;;6.10;;
13487;SDS011;6816;48.506;9.050;2023-01-25T15:15:16;9.10;;;6.23;;
13487;SDS011;6816;48.506;9.050;2023-01-25T15:21:56;8.80;;;5.57;;
13487;SDS011;6816;48.506;9.050;2023-01-25T15:24:58;10.93;;;6.33;;
13487;SDS011;6816;48.506;9.050;2023-01-25T15:27:59;10.13;;;6.67;;
13487;SDS011;6816;48.506;9.050;2023-01-25T15:30:59;10.10;;;6.27;;
13487;SDS011;6816;48.506;9.050;2023-01-25T15:34:02;10.57;;;6.70;;
13487;SDS011;6816;48.506;9.050;2023-01-25T15:37:13;10.60;;;6.93;;
13487;SDS011;6816;48.506;9.050;2023-01-25T15:40:16;8.53;;;6.40;;
13487;SDS011;6816;48.506;9.050;2023-01-25T15:43:17;9.90;;;6.63;;
13487;SDS011;6816;48.506;9.050;2023-01-25T15:46:25;10.43;;;6.63;;
13487;SDS011;6816;48.506;9.050;2023-01-25T15:49:28;8.63;;;6.40;;
13487;SDS011;6816;48.506;9.050;2023-01-25T15:52:30;12.10;;;7.63;;
13487;SDS011;6816;48.506;9.050;2023-01-25T15:55:31;9.53;;;7.07;;
13487;SDS011;6816;48.506;9.050;2023-01-25T15:58:34;9.97;;;6.87;;
13487;SDS011;6816;48.506;9.050;2023-01-25T16:01:36;10.43;;;7.30;;
13487;SDS011;6816;48.506;9.050;2023-01-25T16:04:36;10.13;;;6.77;;
13487;SDS011;6816;48.506;9.050;2023-01-25T16:07:37;9.90;;;6.70;;
13487;SDS011;6816;48.506;9.050;2023-01-25T16:10:40;9.73;;;6.73;;
13487;SDS011;6816;48.506;9.050;2023-01-25T16:13:41;10.47;;;6.83;;
13487;SDS011;6816;48.506;9.050;2023-01-25T16:16:47;10.80;;;6.97;;
13487;SDS011;6816;48.506;9.050;2023-01-25T16:19:49;10.33;;;7.37;;
13487;SDS011;6816;48.506;9.050;2023-01-25T16:22:49;10.87;;;6.73;;
13487;SDS011;6816;48.506;9.050;2023-01-25T16:25:50;10.53;;;6.60;;
13487;SDS011;6816;48.506;9.050;2023-01-25T16:28:50;7.73;;;5.77;;
13487;SDS011;6816;48.506;9.050;2023-01-25T16:31:53;9.83;;;6.80;;
13487;SDS011;6816;48.506;9.050;2023-01-25T16:34:55;7.67;;;5.40;;
13487;SDS011;6816;48.506;9.050;2023-01-25T16:37:55;8.80;;;5.97;;
13487;SDS011;6816;48.506;9.050;2023-01-25T16:40:56;9.90;;;7.07;;
13487;SDS011;6816;48.506;9.050;2023-01-25T16:43:56;9.70;;;7.17;;
13487;SDS011;6816;48.506;9.050;2023-01-25T16:46:57;8.93;;;6.50;;
13487;SDS011;6816;48.506;9.050;2023-01-25T16:49:58;8.23;;;6.07;;
13487;SDS011;6816;48.506;9.050;2023-01-25T16:52:58;10.30;;;6.83;;
13487;SDS011;6816;48.506;9.050;2023-01-25T16:55:59;9.77;;;6.60;;
13487;SDS011;6816;48.506;9.050;2023-01-25T16:59:00;9.87;;;6.67;;
13487;SDS011;6816;48.506;9.050;2023-01-25T17:02:02;10.43;;;7.03;;
13487;SDS011;6816;48.506;9.050;2023-01-25T17:05:03;10.53;;;6.70;;
13487;SDS011;6816;48.506;9.050;2023-01-25T17:08:05;9.03;;;6.53;;
13487;SDS011;6816;48.506;9.050;2023-01-25T17:11:05;9.80;;;7.50;;
13487;SDS011;6816;48.506;9.050;2023-01-25T17:14:06;10.27;;;6.77;;
13487;SDS011;6816;48.506;9.050;2023-01-25T17:17:10;9.23;;;6.40;;
13487;SDS011;6816;48.506;9.050;2023-01-25T17:20:11;9.50;;;6.77;;
13487;SDS011;6816;48.506;9.050;2023-01-25T17:23:12;9.47;;;6.67;;
13487;SDS011;6816;48.506;9.050;2023-01-25T17:26:13;8.97;;;6.70;;
13487;SDS011;6816;48.506;9.050;2023-01-25T17:29:15;9.80;;;6.83;;
13487;SDS011;6816;48.506;9.050;2023-01-25T17:32:16;11.03;;;7.33;;
13487;SDS011;6816;48.506;9.050;2023-01-25T17:35:17;15.37;;;11.93;;
13487;SDS011;6816;48.506;9.050;2023-01-25T17:38:17;13.50;;;9.57;;
13487;SDS011;6816;48.506;9.050;2023-01-25T17:41:19;12.63;;;9.07;;
13487;SDS011;6816;48.506;9.050;2023-01-25T17:44:20;11.00;;;8.17;;
13487;SDS011;6816;48.506;9.050;2023-01-25T17:47:22;9.80;;;7.40;;
13487;SDS011;6816;48.506;9.050;2023-01-25T17:50:22;9.13;;;6.37;;
13487;SDS011;6816;48.506;9.050;2023-01-25T17:53:23;10.50;;;6.53;;
13487;SDS011;6816;48.506;9.050;2023-01-25T17:56:24;11.10;;;7.57;;
13487;SDS011;6816;48.506;9.050;2023-01-25T17:59:25;9.40;;;7.27;;
13487;SDS011;6816;48.506;9.050;2023-01-25T18:02:25;9.60;;;7.60;;
13487;SDS011;6816;48.506;9.050;2023-01-25T18:05:26;10.87;;;7.37;;
13487;SDS011;6816;48.506;9.050;2023-01-25T18:08:28;9.67;;;7.37;;
13487;SDS011;6816;48.506;9.050;2023-01-25T18:11:29;11.07;;;7.63;;
13487;SDS011;6816;48.506;9.050;2023-01-25T18:14:32;8.27;;;6.67;;
13487;SDS011;6816;48.506;9.050;2023-01-25T18:17:34;9.30;;;7.20;;
13487;SDS011;6816;48.506;9.050;2023-01-25T18:20:37;9.27;;;7.33;;
13487;SDS011;6816;48.506;9.050;2023-01-25T18:23:38;11.33;;;7.67;;
13487;SDS011;6816;48.506;9.050;2023-01-25T18:26:39;10.10;;;7.47;;
13487;SDS011;6816;48.506;9.050;2023-01-25T18:33:02;16.43;;;9.50;;
13487;SDS011;6816;48.506;9.050;2023-01-25T18:36:04;20.50;;;13.50;;
13487;SDS011;6816;48.506;9.050;2023-01-25T18:39:05;12.43;;;9.37;;
13487;SDS011;6816;48.506;9.050;2023-01-25T18:42:07;14.77;;;11.17;;
13487;SDS011;6816;48.506;9.050;2023-01-25T18:45:08;13.83;;;9.43;;
13487;SDS011;6816;48.506;9.050;2023-01-25T18:48:09;11.17;;;7.93;;
13487;SDS011;6816;48.506;9.050;2023-01-25T18:51:12;11.40;;;7.83;;
13487;SDS011;6816;48.506;9.050;2023-01-25T18:54:16;8.80;;;6.80;;
13487;SDS011;6816;48.506;9.050;2023-01-25T18:57:16;9.13;;;6.73;;
13487;SDS011;6816;48.506;9.050;2023-01-25T19:00:17;8.27;;;6.40;;
13487;SDS011;6816;48.506;9.050;2023-01-25T19:03:18;10.20;;;7.13;;
13487;SDS011;6816;48.506;9.050;2023-01-25T19:06:18;11.17;;;7.43;;
13487;SDS011;6816;48.506;9.050;2023-01-25T19:09:19;9.00;;;7.07;;
13487;SDS011;6816;48.506;9.050;2023-01-25T19:12:20;10.30;;;7.73;;
13487;SDS011;6816;48.506;9.050;2023-01-25T19:15:20;9.67;;;7.30;;
13487;SDS011;6816;48.506;9.050;2023-01-25T19:18:21;10.60;;;8.13;;
13487;SDS011;6816;48.506;9.050;2023-01-25T19:21:23;10.90;;;7.60;;
13487;SDS011;6816;48.506;9.050;2023-01-25T19:24:25;7.70;;;6.23;;
13487;SDS011;6816;48.506;9.050;2023-01-25T19:27:26;10.10;;;7.10;;
13487;SDS011;6816;48.506;9.050;2023-01-25T19:30:28;9.93;;;7.53;;
13487;SDS011;6816;48.506;9.050;2023-01-25T19:33:29;10.93;;;8.20;;
13487;SDS011;6816;48.506;9.050;2023-01-25T19:36:30;11.17;;;8.83;;
13487;SDS011;6816;48.506;9.050;2023-01-25T19:39:32;11.07;;;8.00;;
13487;SDS011;6816;48.506;9.050;2023-01-25T19:42:33;9.70;;;7.10;;
13487;SDS011;6816;48.506;9.050;2023-01-25T19:45:36;8.20;;;6.50;;
13487;SDS011;6816;48.506;9.050;2023-01-25T19:48:36;8.73;;;6.53;;
13487;SDS011;6816;48.506;9.050;2023-01-25T19:51:38;7.03;;;5.67;;
13487;SDS011;6816;48.506;9.050;2023-01-25T19:54:41;8.83;;;6.30;;
13487;SDS011;6816;48.506;9.050;2023-01-25T19:57:42;7.40;;;5.50;;
13487;SDS011;6816;48.506;9.050;2023-01-25T20:00:44;8.00;;;5.67;;
13487;SDS011;6816;48.506;9.050;2023-01-25T20:03:45;11.43;;;7.60;;
13487;SDS011;6816;48.506;9.050;2023-01-25T20:06:47;8.57;;;6.47;;